createdAt,value
2022-11-19T00:04:51.336Z,7.85
2022-11-19T00:14:52.791Z,7.28
2022-11-19T00:24:54.290Z,6.93
2022-11-19T00:34:55.784Z,6.82
2022-11-19T00:44:57.159Z,6.05
2022-11-19T00:54:58.688Z,7.25
2022-11-19T01:05:00.074Z,6.85
2022-11-19T01:15:01.703Z,6.95
2022-11-19T01:25:03.110Z,6.45
2022-11-19T01:35:05.187Z,6.65
2022-11-19T01:45:07.595Z,6.50
2022-11-19T01:55:09.107Z,6.80
2022-11-19T02:05:10.473Z,6.60
2022-11-19T02:15:36.528Z,6.60
2022-11-19T02:25:56.046Z,6.45
2022-11-19T02:36:05.922Z,5.10
2022-11-19T02:46:13.238Z,4.60
2022-11-19T02:56:17.518Z,3.00
2022-11-19T03:06:20.787Z,2.50
2022-11-19T03:16:42.722Z,1.58
2022-11-19T03:26:46.714Z,1.45
2022-11-19T03:36:48.433Z,1.00
2022-11-19T03:46:52.399Z,0.90
2022-11-19T03:56:53.796Z,0.80
2022-11-19T04:06:55.300Z,0.80
2022-11-19T04:16:56.886Z,0.80
2022-11-19T04:26:58.375Z,0.90
2022-11-19T04:36:59.802Z,1.20
2022-11-19T04:47:02.381Z,1.40
2022-11-19T04:57:03.806Z,1.17
2022-11-19T05:07:05.309Z,1.55
2022-11-19T05:17:06.882Z,1.67
2022-11-19T05:27:08.259Z,1.90
2022-11-19T05:37:09.720Z,2.42
2022-11-19T05:47:11.302Z,2.40
2022-11-19T05:57:12.725Z,3.67
2022-11-19T06:07:14.270Z,4.35
2022-11-19T06:17:16.201Z,5.07
2022-11-19T06:27:17.575Z,5.85
2022-11-19T06:37:19.503Z,5.80
2022-11-19T06:47:20.975Z,6.10
2022-11-19T06:57:22.453Z,6.53
2022-11-19T07:07:23.898Z,6.60
2022-11-19T07:17:25.467Z,6.85
2022-11-19T07:27:26.872Z,9.10
2022-11-19T07:37:28.269Z,7.75
2022-11-19T07:47:29.747Z,8.10
2022-11-19T07:57:31.160Z,7.78
2022-11-19T08:07:32.603Z,7.93
2022-11-19T08:17:52.573Z,7.53
2022-11-19T08:27:53.950Z,7.53
2022-11-19T08:37:55.384Z,7.72
2022-11-19T08:47:57.136Z,6.55
2022-11-19T08:58:00.387Z,6.80
2022-11-19T09:08:01.977Z,6.50
2022-11-19T09:18:05.348Z,6.38
2022-11-19T09:38:45.417Z,6.38
2022-11-19T09:48:46.868Z,6.20
2022-11-19T09:58:48.412Z,5.65
2022-11-19T10:09:11.302Z,5.68
2022-11-19T10:19:41.331Z,5.68
2022-11-19T10:29:42.707Z,6.32
2022-11-19T10:39:48.008Z,4.57
2022-11-19T10:49:53.868Z,4.60
2022-11-19T10:59:55.243Z,5.20
2022-11-19T11:09:56.772Z,6.05
2022-11-19T11:20:01.110Z,6.47
2022-11-19T11:30:21.166Z,5.90
2022-11-19T11:40:23.235Z,5.95
2022-11-19T11:50:26.050Z,5.72
2022-11-19T12:00:30.395Z,6.38
2022-11-19T12:10:53.456Z,6.00
2022-11-19T12:21:11.466Z,6.28
2022-11-19T12:31:30.318Z,5.17
2022-11-19T12:41:47.953Z,5.40
2022-11-19T12:52:02.824Z,5.00
2022-11-19T13:02:10.771Z,5.93
2022-11-19T13:12:17.296Z,4.57
2022-11-19T13:22:21.876Z,5.22
2022-11-19T13:32:38.893Z,5.38
2022-11-19T13:43:17.573Z,5.35
2022-11-19T13:53:22.272Z,6.00
2022-11-19T14:04:14.591Z,5.07
2022-11-19T14:14:44.332Z,4.93
2022-11-19T14:25:04.021Z,4.85
2022-11-19T14:35:07.270Z,5.18
2022-11-19T14:45:08.482Z,5.07
2022-11-19T14:55:41.373Z,5.38
2022-11-19T15:05:43.909Z,5.18
2022-11-19T15:15:45.826Z,4.95
2022-11-19T15:26:21.288Z,5.43
2022-11-19T15:36:30.021Z,6.35
2022-11-19T15:46:43.846Z,5.00
2022-11-19T15:56:49.078Z,4.70
2022-11-19T16:06:50.981Z,5.88
2022-11-19T16:17:10.819Z,5.05
2022-11-19T16:27:22.981Z,5.35
2022-11-19T16:37:24.925Z,4.95
2022-11-19T16:47:33.620Z,6.20
2022-11-19T16:57:35.078Z,6.17
2022-11-19T17:07:36.919Z,5.50
2022-11-19T17:17:41.104Z,6.10
2022-11-19T17:27:42.791Z,6.65
2022-11-19T17:37:44.342Z,6.00
2022-11-19T17:47:45.715Z,5.97
2022-11-19T17:57:47.116Z,5.78
2022-11-19T18:07:48.537Z,5.13
2022-11-19T18:17:50.099Z,6.28
2022-11-19T18:27:51.503Z,5.88
2022-11-19T18:37:53.053Z,6.07
2022-11-19T18:47:54.522Z,6.22
2022-11-19T18:57:56.116Z,6.40
2022-11-19T19:07:57.778Z,7.07
2022-11-19T19:18:02.395Z,7.45
2022-11-19T19:28:06.447Z,7.30
2022-11-19T19:38:08.021Z,7.72
2022-11-19T19:48:19.981Z,7.65
2022-11-19T19:58:25.247Z,7.28
2022-11-19T20:08:30.901Z,8.70
2022-11-19T20:18:32.980Z,7.97
2022-11-19T20:28:34.468Z,8.02
2022-11-19T20:38:37.289Z,7.07
2022-11-19T20:48:39.099Z,8.05
2022-11-19T20:58:40.581Z,8.98
2022-11-19T21:08:41.969Z,8.52
2022-11-19T21:18:43.716Z,7.93
2022-11-19T21:28:47.017Z,8.70
2022-11-19T21:38:48.416Z,8.52
2022-11-19T21:48:49.802Z,8.68
2022-11-19T21:58:51.319Z,7.88
2022-11-19T22:08:52.849Z,9.13
2022-11-19T22:18:54.253Z,8.57
2022-11-19T22:28:55.707Z,8.75
2022-11-19T22:38:57.099Z,7.88
2022-11-19T22:48:58.461Z,8.40
2022-11-19T22:58:59.846Z,8.27
2022-11-19T23:09:02.179Z,10.15
2022-11-19T23:19:03.720Z,9.00
2022-11-19T23:29:05.109Z,8.23
2022-11-19T23:39:08.010Z,8.48
2022-11-19T23:49:10.490Z,8.05
2022-11-19T23:59:12.435Z,8.55
